sensor_id;sensor_type;location;lat;lon;timestamp;P1;durP1;ratioP1;P2;durP2;ratioP2
53775;SDS011;44276;49.534;6.378;2023-07-09T00:02:07;7.45;;;3.92;;
53775;SDS011;44276;49.534;6.378;2023-07-09T00:04:39;24.70;;;5.20;;
53775;SDS011;44276;49.534;6.378;2023-07-09T00:07:12;6.35;;;4.00;;
53775;SDS011;44276;49.534;6.378;2023-07-09T00:09:46;9.85;;;4.68;;
53775;SDS011;44276;49.534;6.378;2023-07-09T00:12:15;8.90;;;3.55;;
53775;SDS011;44276;49.534;6.378;2023-07-09T00:14:46;8.15;;;4.38;;
53775;SDS011;44276;49.534;6.378;2023-07-09T00:17:18;5.90;;;3.90;;
53775;SDS011;44276;49.534;6.378;2023-07-09T00:19:54;6.18;;;3.83;;
53775;SDS011;44276;49.534;6.378;2023-07-09T00:22:22;7.32;;;3.85;;
53775;SDS011;44276;49.534;6.378;2023-07-09T00:24:53;10.23;;;3.50;;
53775;SDS011;44276;49.534;6.378;2023-07-09T00:27:23;6.07;;;3.80;;
53775;SDS011;44276;49.534;6.378;2023-07-09T00:29:57;8.77;;;3.65;;
53775;SDS011;44276;49.534;6.378;2023-07-09T00:32:25;7.15;;;3.97;;
53775;SDS011;44276;49.534;6.378;2023-07-09T00:34:56;7.47;;;4.35;;
53775;SDS011;44276;49.534;6.378;2023-07-09T00:37:24;6.05;;;3.92;;
53775;SDS011;44276;49.534;6.378;2023-07-09T00:39:53;12.73;;;4.55;;
53775;SDS011;44276;49.534;6.378;2023-07-09T00:42:21;5.13;;;3.67;;
53775;SDS011;44276;49.534;6.378;2023-07-09T00:44:50;9.10;;;4.13;;
53775;SDS011;44276;49.534;6.378;2023-07-09T00:47:22;11.80;;;4.03;;
53775;SDS011;44276;49.534;6.378;2023-07-09T00:50:13;7.03;;;3.53;;
53775;SDS011;44276;49.534;6.378;2023-07-09T00:52:54;7.07;;;3.45;;
53775;SDS011;44276;49.534;6.378;2023-07-09T00:55:30;6.50;;;4.35;;
53775;SDS011;44276;49.534;6.378;2023-07-09T00:58:06;7.35;;;4.68;;
53775;SDS011;44276;49.534;6.378;2023-07-09T01:00:43;5.50;;;4.17;;
53775;SDS011;44276;49.534;6.378;2023-07-09T01:03:20;6.43;;;3.75;;
53775;SDS011;44276;49.534;6.378;2023-07-09T01:06:03;8.23;;;4.57;;
53775;SDS011;44276;49.534;6.378;2023-07-09T01:08:33;8.05;;;4.88;;
53775;SDS011;44276;49.534;6.378;2023-07-09T01:11:14;5.50;;;3.63;;
53775;SDS011;44276;49.534;6.378;2023-07-09T01:13:48;8.50;;;3.97;;
53775;SDS011;44276;49.534;6.378;2023-07-09T01:16:19;8.57;;;4.03;;
53775;SDS011;44276;49.534;6.378;2023-07-09T01:18:50;9.23;;;4.20;;
53775;SDS011;44276;49.534;6.378;2023-07-09T01:21:20;8.30;;;4.53;;
53775;SDS011;44276;49.534;6.378;2023-07-09T01:23:49;7.47;;;3.97;;
53775;SDS011;44276;49.534;6.378;2023-07-09T01:26:20;8.52;;;4.78;;
53775;SDS011;44276;49.534;6.378;2023-07-09T01:28:52;11.82;;;4.85;;
53775;SDS011;44276;49.534;6.378;2023-07-09T01:31:21;8.40;;;5.00;;
53775;SDS011;44276;49.534;6.378;2023-07-09T01:33:50;10.68;;;5.72;;
53775;SDS011;44276;49.534;6.378;2023-07-09T01:36:20;9.30;;;5.22;;
53775;SDS011;44276;49.534;6.378;2023-07-09T01:38:51;6.65;;;4.47;;
53775;SDS011;44276;49.534;6.378;2023-07-09T01:41:20;10.85;;;4.07;;
53775;SDS011;44276;49.534;6.378;2023-07-09T01:43:49;7.85;;;4.70;;
53775;SDS011;44276;49.534;6.378;2023-07-09T01:46:17;8.75;;;5.80;;
53775;SDS011;44276;49.534;6.378;2023-07-09T01:48:45;4.53;;;3.67;;
53775;SDS011;44276;49.534;6.378;2023-07-09T01:51:16;8.82;;;4.40;;
53775;SDS011;44276;49.534;6.378;2023-07-09T01:53:46;7.82;;;4.88;;
53775;SDS011;44276;49.534;6.378;2023-07-09T01:56:14;8.07;;;3.70;;
53775;SDS011;44276;49.534;6.378;2023-07-09T01:58:42;8.35;;;5.07;;
53775;SDS011;44276;49.534;6.378;2023-07-09T02:01:11;5.95;;;3.70;;
53775;SDS011;44276;49.534;6.378;2023-07-09T02:03:41;7.15;;;4.45;;
53775;SDS011;44276;49.534;6.378;2023-07-09T02:06:09;9.98;;;4.13;;
53775;SDS011;44276;49.534;6.378;2023-07-09T02:08:38;6.10;;;3.70;;
53775;SDS011;44276;49.534;6.378;2023-07-09T02:11:08;5.47;;;3.92;;
53775;SDS011;44276;49.534;6.378;2023-07-09T02:13:36;8.80;;;4.28;;
53775;SDS011;44276;49.534;6.378;2023-07-09T02:16:04;8.65;;;4.90;;
53775;SDS011;44276;49.534;6.378;2023-07-09T02:18:33;9.40;;;5.15;;
53775;SDS011;44276;49.534;6.378;2023-07-09T02:21:02;8.20;;;4.65;;
53775;SDS011;44276;49.534;6.378;2023-07-09T02:23:30;9.00;;;5.15;;
53775;SDS011;44276;49.534;6.378;2023-07-09T02:25:58;8.10;;;4.03;;
53775;SDS011;44276;49.534;6.378;2023-07-09T02:28:28;10.73;;;4.80;;
53775;SDS011;44276;49.534;6.378;2023-07-09T02:30:57;10.40;;;4.97;;
53775;SDS011;44276;49.534;6.378;2023-07-09T02:33:25;9.13;;;5.20;;
53775;SDS011;44276;49.534;6.378;2023-07-09T02:35:53;8.57;;;5.32;;
53775;SDS011;44276;49.534;6.378;2023-07-09T02:38:21;7.63;;;4.45;;
53775;SDS011;44276;49.534;6.378;2023-07-09T02:40:49;8.30;;;4.78;;
53775;SDS011;44276;49.534;6.378;2023-07-09T02:43:19;8.40;;;5.18;;
53775;SDS011;44276;49.534;6.378;2023-07-09T02:45:49;8.30;;;4.78;;
53775;SDS011;44276;49.534;6.378;2023-07-09T02:48:17;13.85;;;4.65;;
53775;SDS011;44276;49.534;6.378;2023-07-09T02:50:45;8.15;;;4.57;;
53775;SDS011;44276;49.534;6.378;2023-07-09T02:53:13;9.73;;;5.78;;
53775;SDS011;44276;49.534;6.378;2023-07-09T02:55:42;8.82;;;5.28;;
53775;SDS011;44276;49.534;6.378;2023-07-09T02:58:10;7.80;;;4.90;;
53775;SDS011;44276;49.534;6.378;2023-07-09T03:00:38;9.45;;;5.20;;
53775;SDS011;44276;49.534;6.378;2023-07-09T03:03:08;10.68;;;4.85;;
53775;SDS011;44276;49.534;6.378;2023-07-09T03:05:36;5.65;;;4.40;;
53775;SDS011;44276;49.534;6.378;2023-07-09T03:08:05;7.30;;;5.10;;
53775;SDS011;44276;49.534;6.378;2023-07-09T03:10:34;11.25;;;5.85;;
53775;SDS011;44276;49.534;6.378;2023-07-09T03:13:02;8.25;;;4.65;;
53775;SDS011;44276;49.534;6.378;2023-07-09T03:15:30;10.73;;;5.05;;
53775;SDS011;44276;49.534;6.378;2023-07-09T03:17:59;13.43;;;5.15;;
53775;SDS011;44276;49.534;6.378;2023-07-09T03:20:28;10.25;;;5.65;;
53775;SDS011;44276;49.534;6.378;2023-07-09T03:22:57;9.52;;;5.40;;
53775;SDS011;44276;49.534;6.378;2023-07-09T03:25:25;9.30;;;5.20;;
53775;SDS011;44276;49.534;6.378;2023-07-09T03:27:53;8.15;;;5.70;;
53775;SDS011;44276;49.534;6.378;2023-07-09T03:30:21;12.20;;;5.78;;
53775;SDS011;44276;49.534;6.378;2023-07-09T03:32:50;12.45;;;5.78;;
53775;SDS011;44276;49.534;6.378;2023-07-09T03:35:18;15.18;;;6.13;;
53775;SDS011;44276;49.534;6.378;2023-07-09T03:37:47;12.25;;;6.60;;
53775;SDS011;44276;49.534;6.378;2023-07-09T03:40:20;6.32;;;4.80;;
53775;SDS011;44276;49.534;6.378;2023-07-09T03:42:50;7.75;;;4.85;;
53775;SDS011;44276;49.534;6.378;2023-07-09T03:45:18;7.88;;;5.30;;
53775;SDS011;44276;49.534;6.378;2023-07-09T03:47:47;9.52;;;4.88;;
53775;SDS011;44276;49.534;6.378;2023-07-09T03:50:15;7.88;;;4.95;;
53775;SDS011;44276;49.534;6.378;2023-07-09T03:52:44;12.65;;;4.68;;
53775;SDS011;44276;49.534;6.378;2023-07-09T03:55:14;7.90;;;5.35;;
53775;SDS011;44276;49.534;6.378;2023-07-09T03:57:42;7.60;;;5.40;;
53775;SDS011;44276;49.534;6.378;2023-07-09T04:00:11;9.23;;;5.63;;
53775;SDS011;44276;49.534;6.378;2023-07-09T04:02:41;8.23;;;5.22;;
53775;SDS011;44276;49.534;6.378;2023-07-09T04:05:10;7.22;;;4.03;;
53775;SDS011;44276;49.534;6.378;2023-07-09T04:07:39;7.30;;;4.72;;
53775;SDS011;44276;49.534;6.378;2023-07-09T04:10:08;6.47;;;4.32;;
53775;SDS011;44276;49.534;6.378;2023-07-09T04:12:38;9.80;;;5.18;;
53775;SDS011;44276;49.534;6.378;2023-07-09T04:15:07;7.75;;;4.32;;
53775;SDS011;44276;49.534;6.378;2023-07-09T04:17:39;8.85;;;4.65;;
53775;SDS011;44276;49.534;6.378;2023-07-09T04:20:08;9.25;;;4.78;;
53775;SDS011;44276;49.534;6.378;2023-07-09T04:22:39;6.53;;;4.45;;
53775;SDS011;44276;49.534;6.378;2023-07-09T04:25:09;6.43;;;4.07;;
53775;SDS011;44276;49.534;6.378;2023-07-09T04:27:40;7.60;;;4.10;;
53775;SDS011;44276;49.534;6.378;2023-07-09T04:30:10;6.20;;;3.80;;
53775;SDS011;44276;49.534;6.378;2023-07-09T04:32:41;6.80;;;4.45;;
53775;SDS011;44276;49.534;6.378;2023-07-09T04:35:10;5.90;;;4.35;;
53775;SDS011;44276;49.534;6.378;2023-07-09T04:37:40;7.82;;;4.75;;
53775;SDS011;44276;49.534;6.378;2023-07-09T04:40:09;10.27;;;5.18;;
53775;SDS011;44276;49.534;6.378;2023-07-09T04:42:41;9.00;;;3.75;;
53775;SDS011;44276;49.534;6.378;2023-07-09T04:45:10;7.53;;;4.43;;
53775;SDS011;44276;49.534;6.378;2023-07-09T04:47:39;7.93;;;4.28;;
53775;SDS011;44276;49.534;6.378;2023-07-09T04:50:08;19.42;;;6.20;;
53775;SDS011;44276;49.534;6.378;2023-07-09T04:52:38;8.13;;;4.43;;
53775;SDS011;44276;49.534;6.378;2023-07-09T04:55:07;5.43;;;4.07;;
53775;SDS011;44276;49.534;6.378;2023-07-09T04:57:36;10.95;;;4.82;;
53775;SDS011;44276;49.534;6.378;2023-07-09T05:00:06;7.78;;;4.88;;
53775;SDS011;44276;49.534;6.378;2023-07-09T05:02:37;5.75;;;4.57;;
53775;SDS011;44276;49.534;6.378;2023-07-09T05:05:05;10.50;;;5.07;;
53775;SDS011;44276;49.534;6.378;2023-07-09T05:07:34;9.13;;;4.50;;
53775;SDS011;44276;49.534;6.378;2023-07-09T05:10:03;4.88;;;3.70;;
53775;SDS011;44276;49.534;6.378;2023-07-09T05:12:31;10.63;;;4.60;;
53775;SDS011;44276;49.534;6.378;2023-07-09T05:15:00;5.97;;;4.10;;
53775;SDS011;44276;49.534;6.378;2023-07-09T05:17:29;7.60;;;4.78;;
53775;SDS011;44276;49.534;6.378;2023-07-09T05:19:58;5.47;;;4.03;;
53775;SDS011;44276;49.534;6.378;2023-07-09T05:22:26;7.65;;;3.70;;
53775;SDS011;44276;49.534;6.378;2023-07-09T05:24:54;7.78;;;3.83;;
53775;SDS011;44276;49.534;6.378;2023-07-09T05:27:22;4.43;;;3.42;;
53775;SDS011;44276;49.534;6.378;2023-07-09T05:29:50;9.25;;;4.50;;
53775;SDS011;44276;49.534;6.378;2023-07-09T05:32:18;5.38;;;2.97;;
53775;SDS011;44276;49.534;6.378;2023-07-09T05:34:47;8.80;;;3.40;;
53775;SDS011;44276;49.534;6.378;2023-07-09T05:37:15;6.35;;;3.75;;
53775;SDS011;44276;49.534;6.378;2023-07-09T05:39:44;5.22;;;2.88;;
53775;SDS011;44276;49.534;6.378;2023-07-09T05:42:12;8.00;;;3.80;;
53775;SDS011;44276;49.534;6.378;2023-07-09T05:44:40;7.40;;;3.67;;
53775;SDS011;44276;49.534;6.378;2023-07-09T05:47:08;7.68;;;3.65;;
53775;SDS011;44276;49.534;6.378;2023-07-09T05:49:37;8.00;;;3.08;;
53775;SDS011;44276;49.534;6.378;2023-07-09T05:52:07;5.25;;;3.30;;
53775;SDS011;44276;49.534;6.378;2023-07-09T05:54:35;8.98;;;4.18;;
53775;SDS011;44276;49.534;6.378;2023-07-09T05:57:04;7.22;;;2.97;;
53775;SDS011;44276;49.534;6.378;2023-07-09T05:59:33;5.63;;;3.90;;
53775;SDS011;44276;49.534;6.378;2023-07-09T06:02:01;6.30;;;3.38;;
53775;SDS011;44276;49.534;6.378;2023-07-09T06:04:29;6.13;;;3.47;;
53775;SDS011;44276;49.534;6.378;2023-07-09T06:06:58;4.75;;;3.30;;
53775;SDS011;44276;49.534;6.378;2023-07-09T06:09:27;4.15;;;3.03;;
53775;SDS011;44276;49.534;6.378;2023-07-09T06:11:55;5.82;;;3.38;;
53775;SDS011;44276;49.534;6.378;2023-07-09T06:14:24;4.78;;;3.53;;
53775;SDS011;44276;49.534;6.378;2023-07-09T06:16:52;6.60;;;2.95;;
53775;SDS011;44276;49.534;6.378;2023-07-09T06:19:20;5.63;;;2.78;;
53775;SDS011;44276;49.534;6.378;2023-07-09T06:21:49;8.93;;;4.28;;
53775;SDS011;44276;49.534;6.378;2023-07-09T06:24:18;4.97;;;3.17;;
53775;SDS011;44276;49.534;6.378;2023-07-09T06:26:47;4.63;;;2.83;;
53775;SDS011;44276;49.534;6.378;2023-07-09T06:29:16;5.32;;;3.63;;
53775;SDS011;44276;49.534;6.378;2023-07-09T06:31:44;4.65;;;3.05;;
53775;SDS011;44276;49.534;6.378;2023-07-09T06:34:12;5.07;;;2.95;;
53775;SDS011;44276;49.534;6.378;2023-07-09T06:36:40;4.80;;;3.10;;
53775;SDS011;44276;49.534;6.378;2023-07-09T06:39:10;9.68;;;3.22;;
53775;SDS011;44276;49.534;6.378;2023-07-09T06:41:38;4.43;;;2.90;;
53775;SDS011;44276;49.534;6.378;2023-07-09T06:44:08;5.15;;;3.03;;
53775;SDS011;44276;49.534;6.378;2023-07-09T06:46:37;5.47;;;2.90;;
53775;SDS011;44276;49.534;6.378;2023-07-09T06:49:05;5.72;;;2.63;;
53775;SDS011;44276;49.534;6.378;2023-07-09T06:51:33;4.75;;;2.65;;
53775;SDS011;44276;49.534;6.378;2023-07-09T06:54:02;7.30;;;2.83;;
53775;SDS011;44276;49.534;6.378;2023-07-09T06:56:31;5.10;;;2.85;;
53775;SDS011;44276;49.534;6.378;2023-07-09T06:58:59;5.00;;;2.80;;
53775;SDS011;44276;49.534;6.378;2023-07-09T07:01:28;6.07;;;3.30;;
53775;SDS011;44276;49.534;6.378;2023-07-09T07:03:57;5.25;;;2.60;;
53775;SDS011;44276;49.534;6.378;2023-07-09T07:06:25;6.07;;;3.50;;
53775;SDS011;44276;49.534;6.378;2023-07-09T07:08:53;3.53;;;2.55;;
53775;SDS011;44276;49.534;6.378;2023-07-09T07:11:21;4.28;;;2.75;;
53775;SDS011;44276;49.534;6.378;2023-07-09T07:13:49;8.15;;;2.95;;
53775;SDS011;44276;49.534;6.378;2023-07-09T07:16:18;4.35;;;2.70;;
53775;SDS011;44276;49.534;6.378;2023-07-09T07:18:48;4.75;;;2.75;;
53775;SDS011;44276;49.534;6.378;2023-07-09T07:21:16;4.63;;;3.25;;
53775;SDS011;44276;49.534;6.378;2023-07-09T07:23:44;5.75;;;2.80;;
53775;SDS011;44276;49.534;6.378;2023-07-09T07:26:12;5.13;;;2.90;;
53775;SDS011;44276;49.534;6.378;2023-07-09T07:28:40;4.35;;;2.42;;
53775;SDS011;44276;49.534;6.378;2023-07-09T07:31:09;5.35;;;3.00;;
53775;SDS011;44276;49.534;6.378;2023-07-09T07:33:38;5.10;;;2.85;;
53775;SDS011;44276;49.534;6.378;2023-07-09T07:36:09;4.25;;;3.20;;
53775;SDS011;44276;49.534;6.378;2023-07-09T07:38:56;4.13;;;2.60;;
53775;SDS011;44276;49.534;6.378;2023-07-09T07:41:24;5.35;;;3.08;;
53775;SDS011;44276;49.534;6.378;2023-07-09T07:43:53;3.88;;;2.80;;
53775;SDS011;44276;49.534;6.378;2023-07-09T07:46:21;5.35;;;2.85;;
53775;SDS011;44276;49.534;6.378;2023-07-09T07:48:49;5.03;;;3.65;;
53775;SDS011;44276;49.534;6.378;2023-07-09T07:51:18;4.68;;;2.55;;
53775;SDS011;44276;49.534;6.378;2023-07-09T07:53:48;5.85;;;3.25;;
53775;SDS011;44276;49.534;6.378;2023-07-09T07:56:16;7.63;;;2.75;;
53775;SDS011;44276;49.534;6.378;2023-07-09T07:58:44;3.53;;;2.83;;
53775;SDS011;44276;49.534;6.378;2023-07-09T08:01:12;4.28;;;2.88;;
53775;SDS011;44276;49.534;6.378;2023-07-09T08:03:42;5.03;;;2.45;;
53775;SDS011;44276;49.534;6.378;2023-07-09T08:06:10;3.75;;;2.90;;
53775;SDS011;44276;49.534;6.378;2023-07-09T08:08:39;4.78;;;2.88;;
53775;SDS011;44276;49.534;6.378;2023-07-09T08:11:08;4.25;;;2.83;;
53775;SDS011;44276;49.534;6.378;2023-07-09T08:13:37;5.43;;;2.88;;
53775;SDS011;44276;49.534;6.378;2023-07-09T08:16:06;3.95;;;2.40;;
53775;SDS011;44276;49.534;6.378;2023-07-09T08:18:37;4.25;;;2.90;;
53775;SDS011;44276;49.534;6.378;2023-07-09T08:21:05;3.45;;;2.47;;
53775;SDS011;44276;49.534;6.378;2023-07-09T08:23:33;3.22;;;2.40;;
53775;SDS011;44276;49.534;6.378;2023-07-09T08:26:03;5.78;;;3.05;;
53775;SDS011;44276;49.534;6.378;2023-07-09T08:28:32;9.48;;;3.03;;
53775;SDS011;44276;49.534;6.378;2023-07-09T08:31:02;5.45;;;3.20;;
53775;SDS011;44276;49.534;6.378;2023-07-09T08:33:31;4.88;;;2.50;;
53775;SDS011;44276;49.534;6.378;2023-07-09T08:36:00;6.05;;;3.20;;
53775;SDS011;44276;49.534;6.378;2023-07-09T08:38:28;3.40;;;2.25;;
53775;SDS011;44276;49.534;6.378;2023-07-09T08:40:57;3.90;;;2.17;;
53775;SDS011;44276;49.534;6.378;2023-07-09T08:43:34;4.28;;;2.15;;
53775;SDS011;44276;49.534;6.378;2023-07-09T08:46:18;2.78;;;2.10;;
53775;SDS011;44276;49.534;6.378;2023-07-09T08:48:54;5.53;;;2.38;;
53775;SDS011;44276;49.534;6.378;2023-07-09T08:51:28;3.85;;;2.25;;
53775;SDS011;44276;49.534;6.378;2023-07-09T08:54:03;5.50;;;2.30;;
53775;SDS011;44276;49.534;6.378;2023-07-09T08:56:40;3.83;;;2.35;;
53775;SDS011;44276;49.534;6.378;2023-07-09T08:59:11;4.20;;;2.42;;
53775;SDS011;44276;49.534;6.378;2023-07-09T09:01:46;4.90;;;2.45;;
53775;SDS011;44276;49.534;6.378;2023-07-09T09:04:20;7.68;;;2.53;;
53775;SDS011;44276;49.534;6.378;2023-07-09T09:06:57;4.47;;;2.80;;
53775;SDS011;44276;49.534;6.378;2023-07-09T09:09:36;3.45;;;2.53;;
53775;SDS011;44276;49.534;6.378;2023-07-09T09:12:12;4.65;;;2.55;;
53775;SDS011;44276;49.534;6.378;2023-07-09T09:14:48;2.97;;;2.15;;
53775;SDS011;44276;49.534;6.378;2023-07-09T09:17:25;5.45;;;2.38;;
53775;SDS011;44276;49.534;6.378;2023-07-09T09:19:56;4.90;;;2.33;;
53775;SDS011;44276;49.534;6.378;2023-07-09T09:22:33;6.28;;;2.58;;
53775;SDS011;44276;49.534;6.378;2023-07-09T09:25:12;7.68;;;3.40;;
53775;SDS011;44276;49.534;6.378;2023-07-09T09:27:51;5.07;;;2.40;;
53775;SDS011;44276;49.534;6.378;2023-07-09T09:30:22;3.38;;;2.38;;
53775;SDS011;44276;49.534;6.378;2023-07-09T09:32:53;4.75;;;1.98;;
53775;SDS011;44276;49.534;6.378;2023-07-09T09:35:27;4.35;;;2.38;;
53775;SDS011;44276;49.534;6.378;2023-07-09T09:37:58;4.67;;;2.37;;
53775;SDS011;44276;49.534;6.378;2023-07-09T09:40:29;3.00;;;1.90;;
53775;SDS011;44276;49.534;6.378;2023-07-09T09:43:02;4.78;;;1.92;;
53775;SDS011;44276;49.534;6.378;2023-07-09T09:45:42;5.85;;;2.42;;
53775;SDS011;44276;49.534;6.378;2023-07-09T09:48:16;4.55;;;2.30;;
53775;SDS011;44276;49.534;6.378;2023-07-09T09:50:47;8.37;;;2.90;;
53775;SDS011;44276;49.534;6.378;2023-07-09T09:53:18;4.82;;;2.35;;
53775;SDS011;44276;49.534;6.378;2023-07-09T09:55:51;3.63;;;2.38;;
53775;SDS011;44276;49.534;6.378;2023-07-09T09:58:25;3.25;;;2.53;;
53775;SDS011;44276;49.534;6.378;2023-07-09T10:00:58;4.15;;;2.03;;
53775;SDS011;44276;49.534;6.378;2023-07-09T10:03:33;6.68;;;1.95;;
53775;SDS011;44276;49.534;6.378;2023-07-09T10:06:12;4.68;;;2.72;;
53775;SDS011;44276;49.534;6.378;2023-07-09T10:08:49;3.72;;;1.95;;
53775;SDS011;44276;49.534;6.378;2023-07-09T10:11:28;4.28;;;2.58;;
53775;SDS011;44276;49.534;6.378;2023-07-09T10:16:57;5.15;;;2.65;;
53775;SDS011;44276;49.534;6.378;2023-07-09T10:19:41;5.82;;;2.08;;
53775;SDS011;44276;49.534;6.378;2023-07-09T10:22:22;4.50;;;2.30;;
53775;SDS011;44276;49.534;6.378;2023-07-09T10:25:09;6.07;;;2.63;;
53775;SDS011;44276;49.534;6.378;2023-07-09T10:28:01;3.15;;;2.28;;
53775;SDS011;44276;49.534;6.378;2023-07-09T10:30:52;5.07;;;2.45;;
53775;SDS011;44276;49.534;6.378;2023-07-09T10:33:35;3.17;;;1.98;;
53775;SDS011;44276;49.534;6.378;2023-07-09T10:36:26;4.95;;;2.50;;
53775;SDS011;44276;49.534;6.378;2023-07-09T10:39:16;4.15;;;2.38;;
53775;SDS011;44276;49.534;6.378;2023-07-09T10:41:51;4.20;;;2.38;;
53775;SDS011;44276;49.534;6.378;2023-07-09T10:47:02;3.28;;;2.38;;
53775;SDS011;44276;49.534;6.378;2023-07-09T10:49:40;7.60;;;2.08;;
53775;SDS011;44276;49.534;6.378;2023-07-09T10:52:11;7.95;;;2.35;;
53775;SDS011;44276;49.534;6.378;2023-07-09T10:54:52;5.38;;;2.15;;
53775;SDS011;44276;49.534;6.378;2023-07-09T10:57:30;4.15;;;2.70;;
53775;SDS011;44276;49.534;6.378;2023-07-09T11:00:14;5.53;;;2.45;;
53775;SDS011;44276;49.534;6.378;2023-07-09T11:02:47;6.72;;;2.40;;
53775;SDS011;44276;49.534;6.378;2023-07-09T11:05:28;4.75;;;1.83;;
53775;SDS011;44276;49.534;6.378;2023-07-09T11:07:59;5.47;;;2.72;;
53775;SDS011;44276;49.534;6.378;2023-07-09T11:10:34;4.47;;;2.33;;
53775;SDS011;44276;49.534;6.378;2023-07-09T11:13:10;5.17;;;2.20;;
53775;SDS011;44276;49.534;6.378;2023-07-09T11:15:45;4.55;;;2.65;;
53775;SDS011;44276;49.534;6.378;2023-07-09T11:18:20;3.42;;;2.50;;
53775;SDS011;44276;49.534;6.378;2023-07-09T11:21:00;4.28;;;2.60;;
53775;SDS011;44276;49.534;6.378;2023-07-09T11:23:43;6.28;;;3.50;;
53775;SDS011;44276;49.534;6.378;2023-07-09T11:26:15;4.95;;;2.67;;
53775;SDS011;44276;49.534;6.378;2023-07-09T11:28:53;4.55;;;2.75;;
53775;SDS011;44276;49.534;6.378;2023-07-09T11:31:37;9.02;;;2.97;;
53775;SDS011;44276;49.534;6.378;2023-07-09T11:34:08;6.43;;;3.05;;
53775;SDS011;44276;49.534;6.378;2023-07-09T11:36:48;3.25;;;1.95;;
53775;SDS011;44276;49.534;6.378;2023-07-09T11:39:27;4.47;;;2.90;;
53775;SDS011;44276;49.534;6.378;2023-07-09T11:41:58;4.88;;;2.92;;
53775;SDS011;44276;49.534;6.378;2023-07-09T11:44:27;7.10;;;2.72;;
53775;SDS011;44276;49.534;6.378;2023-07-09T11:46:59;4.43;;;2.63;;
53775;SDS011;44276;49.534;6.378;2023-07-09T11:49:43;7.40;;;2.78;;
53775;SDS011;44276;49.534;6.378;2023-07-09T11:52:22;3.17;;;2.13;;
53775;SDS011;44276;49.534;6.378;2023-07-09T11:55:01;3.22;;;2.40;;
53775;SDS011;44276;49.534;6.378;2023-07-09T11:57:46;7.80;;;3.28;;
53775;SDS011;44276;49.534;6.378;2023-07-09T12:00:16;5.93;;;2.85;;
53775;SDS011;44276;49.534;6.378;2023-07-09T12:02:44;5.70;;;2.38;;
53775;SDS011;44276;49.534;6.378;2023-07-09T12:05:15;4.68;;;2.40;;
53775;SDS011;44276;49.534;6.378;2023-07-09T12:07:53;5.65;;;2.67;;
53775;SDS011;44276;49.534;6.378;2023-07-09T12:10:24;5.78;;;2.92;;
53775;SDS011;44276;49.534;6.378;2023-07-09T12:13:00;4.65;;;2.97;;
53775;SDS011;44276;49.534;6.378;2023-07-09T12:15:30;6.68;;;2.75;;
53775;SDS011;44276;49.534;6.378;2023-07-09T12:18:00;8.95;;;2.80;;
53775;SDS011;44276;49.534;6.378;2023-07-09T12:20:33;4.38;;;2.70;;
53775;SDS011;44276;49.534;6.378;2023-07-09T12:23:11;5.20;;;2.92;;
53775;SDS011;44276;49.534;6.378;2023-07-09T12:25:47;3.17;;;2.13;;
53775;SDS011;44276;49.534;6.378;2023-07-09T12:28:17;6.85;;;2.95;;
53775;SDS011;44276;49.534;6.378;2023-07-09T12:30:48;6.07;;;3.13;;
53775;SDS011;44276;49.534;6.378;2023-07-09T12:33:21;8.18;;;2.72;;
53775;SDS011;44276;49.534;6.378;2023-07-09T12:35:54;6.00;;;2.47;;
53775;SDS011;44276;49.534;6.378;2023-07-09T12:38:27;6.22;;;2.58;;
53775;SDS011;44276;49.534;6.378;2023-07-09T12:40:59;8.23;;;2.43;;
53775;SDS011;44276;49.534;6.378;2023-07-09T12:43:31;8.13;;;3.67;;
53775;SDS011;44276;49.534;6.378;2023-07-09T12:46:00;4.18;;;2.42;;
53775;SDS011;44276;49.534;6.378;2023-07-09T12:48:29;7.22;;;3.00;;
53775;SDS011;44276;49.534;6.378;2023-07-09T12:50:58;8.23;;;2.88;;
53775;SDS011;44276;49.534;6.378;2023-07-09T12:53:29;10.10;;;2.67;;
53775;SDS011;44276;49.534;6.378;2023-07-09T12:55:58;6.88;;;2.97;;
53775;SDS011;44276;49.534;6.378;2023-07-09T12:58:29;4.18;;;2.97;;
53775;SDS011;44276;49.534;6.378;2023-07-09T13:01:00;6.72;;;3.17;;
53775;SDS011;44276;49.534;6.378;2023-07-09T13:03:36;4.50;;;2.60;;
53775;SDS011;44276;49.534;6.378;2023-07-09T13:06:05;8.80;;;2.97;;
53775;SDS011;44276;49.534;6.378;2023-07-09T13:08:56;5.70;;;3.08;;
53775;SDS011;44276;49.534;6.378;2023-07-09T13:11:31;3.88;;;2.28;;
53775;SDS011;44276;49.534;6.378;2023-07-09T13:14:02;7.20;;;2.33;;
53775;SDS011;44276;49.534;6.378;2023-07-09T13:16:37;3.05;;;2.25;;
53775;SDS011;44276;49.534;6.378;2023-07-09T13:19:10;11.55;;;3.53;;
53775;SDS011;44276;49.534;6.378;2023-07-09T13:21:39;42.55;;;6.30;;
53775;SDS011;44276;49.534;6.378;2023-07-09T13:24:13;14.52;;;2.97;;
53775;SDS011;44276;49.534;6.378;2023-07-09T13:26:46;9.38;;;2.92;;
53775;SDS011;44276;49.534;6.378;2023-07-09T13:29:15;23.33;;;5.70;;
53775;SDS011;44276;49.534;6.378;2023-07-09T13:31:46;20.25;;;5.18;;
53775;SDS011;44276;49.534;6.378;2023-07-09T13:34:18;12.10;;;4.55;;
53775;SDS011;44276;49.534;6.378;2023-07-09T13:36:49;10.25;;;5.10;;
53775;SDS011;44276;49.534;6.378;2023-07-09T13:39:23;5.25;;;3.90;;
53775;SDS011;44276;49.534;6.378;2023-07-09T13:41:54;14.60;;;4.88;;
53775;SDS011;44276;49.534;6.378;2023-07-09T13:44:25;14.77;;;4.45;;
53775;SDS011;44276;49.534;6.378;2023-07-09T13:46:57;10.38;;;5.45;;
53775;SDS011;44276;49.534;6.378;2023-07-09T13:49:25;12.30;;;5.07;;
53775;SDS011;44276;49.534;6.378;2023-07-09T13:51:55;8.13;;;4.78;;
53775;SDS011;44276;49.534;6.378;2023-07-09T13:54:29;11.57;;;4.60;;
53775;SDS011;44276;49.534;6.378;2023-07-09T13:57:04;15.55;;;4.80;;
53775;SDS011;44276;49.534;6.378;2023-07-09T13:59:39;10.32;;;4.30;;
53775;SDS011;44276;49.534;6.378;2023-07-09T14:02:14;9.98;;;5.05;;
53775;SDS011;44276;49.534;6.378;2023-07-09T14:04:50;10.15;;;4.95;;
53775;SDS011;44276;49.534;6.378;2023-07-09T14:07:22;6.30;;;4.40;;
53775;SDS011;44276;49.534;6.378;2023-07-09T14:09:57;10.93;;;4.55;;
53775;SDS011;44276;49.534;6.378;2023-07-09T14:12:26;10.00;;;4.55;;
53775;SDS011;44276;49.534;6.378;2023-07-09T14:14:56;5.63;;;4.88;;
53775;SDS011;44276;49.534;6.378;2023-07-09T14:17:28;4.95;;;4.05;;
53775;SDS011;44276;49.534;6.378;2023-07-09T14:19:56;10.55;;;5.28;;
53775;SDS011;44276;49.534;6.378;2023-07-09T14:22:27;7.55;;;4.43;;
53775;SDS011;44276;49.534;6.378;2023-07-09T14:25:05;5.65;;;3.90;;
53775;SDS011;44276;49.534;6.378;2023-07-09T14:27:41;5.63;;;3.75;;
53775;SDS011;44276;49.534;6.378;2023-07-09T14:30:13;9.25;;;4.07;;
53775;SDS011;44276;49.534;6.378;2023-07-09T14:32:43;5.68;;;3.55;;
53775;SDS011;44276;49.534;6.378;2023-07-09T14:35:14;9.45;;;3.45;;
53775;SDS011;44276;49.534;6.378;2023-07-09T14:37:47;6.38;;;3.17;;
53775;SDS011;44276;49.534;6.378;2023-07-09T14:40:19;4.95;;;2.80;;
53775;SDS011;44276;49.534;6.378;2023-07-09T14:42:48;6.60;;;3.88;;
53775;SDS011;44276;49.534;6.378;2023-07-09T14:45:18;5.97;;;3.50;;
53775;SDS011;44276;49.534;6.378;2023-07-09T14:47:50;5.72;;;3.63;;
53775;SDS011;44276;49.534;6.378;2023-07-09T14:50:21;8.88;;;3.83;;
53775;SDS011;44276;49.534;6.378;2023-07-09T14:52:52;5.28;;;3.25;;
53775;SDS011;44276;49.534;6.378;2023-07-09T14:55:22;6.63;;;2.92;;
53775;SDS011;44276;49.534;6.378;2023-07-09T14:57:51;6.28;;;2.65;;
53775;SDS011;44276;49.534;6.378;2023-07-09T15:00:20;6.13;;;3.13;;
53775;SDS011;44276;49.534;6.378;2023-07-09T15:02:51;6.43;;;3.05;;
53775;SDS011;44276;49.534;6.378;2023-07-09T15:05:21;5.97;;;3.65;;
53775;SDS011;44276;49.534;6.378;2023-07-09T15:07:52;3.85;;;2.58;;
53775;SDS011;44276;49.534;6.378;2023-07-09T15:10:24;8.90;;;3.28;;
53775;SDS011;44276;49.534;6.378;2023-07-09T15:12:54;6.85;;;2.63;;
53775;SDS011;44276;49.534;6.378;2023-07-09T15:15:24;4.57;;;2.35;;
53775;SDS011;44276;49.534;6.378;2023-07-09T15:17:56;3.05;;;2.63;;